Portada
METAR-TAF:

METAR-TAF

Aeropuertos :

Base Naval de Rota

Rota, España

latitud: 36-39N, longitud: 006-21W, altitud: 26 m

Observación

El informe se hizo hace 12 minutos, a las 03:00 UTC
Viento 3 kt con dirección variable
Temperatura 12°C
Humedad 88%
Presión 1026 hPa
Visibilidad 10 km o más
sin nubes por debajo de 1500 m y sin presencia de cumulonimbus.

METAR: LERT 100300Z VRB03KT CAVOK 12/10 Q1026 NOSIG

Hora: 04:12 (03:12 UTC)

Pronóstico

El informe se hizo hace 1 hora y 12 minutos, a las 02:00 UTC
Pronóstico válido del 10 a las 03 UTC al 10 a las 12 UTC
Viento 7 kt del noreste
Visibilidad 10 km o más
sin nubes por debajo de 1500 m y sin presencia de cumulonimbus.

TAF: LERT 100200Z 1003/1012 04007KT CAVOK

Observaciones y pronósticos meteorológicos de más de 4000 aeropuertos (mensajes METAR y TAF).

Los puntos amarillos y rojos representan las estaciones disponibles.

Ponga el ratón en el punto deseado para ver el nombre de la estación.

Haga clic para ver las observaciones y los pronósticos meteorológicos.

Para cambiar el mapa : haga clic en los botones verdes con una cruz de color negro para hacer un zoom, en el botón verde con un guión para alejar o en las flechas verdes para mapas adyacentes.


METAR-TAF: